Terminal Aerodrome Forecast
Issued by NWS Twin Cities, MN

Home | Current Version | Previous Version | Text Only | Print | Product List | Glossary On
Versions: 1 2 3 4 5 6 7 8 9 10 11 12 13 14 15 16 17 18
900
FTUS43 KMPX 071723
TAFEAU
TAF
KEAU 071723Z 0718/0818 26012G20KT P6SM SCT025 BKN050
     FM080000 28014G22KT 3SM -SHSN BLSN OVC015
     FM080400 31016G24KT 2SM -SN BLSN OVC015=

USA.gov is the U.S. government's official web portal to all federal, state and local government web resources and services.